Terminal Aerodrome Forecast
Issued by NWS

Home | Current Version | Previous Version | Text Only | Print | Product List | Glossary On
Versions: 1 2 3 4 5 6 7 8 9 10 11 12 13 14 15 16 17 18 19 20 21 22 23 24 25 26
000
FTUS43 KILX 272338
TAFDEC
TAF
KDEC 272338Z 2800/2824 18014G21KT P6SM -SHRA SCT040 OVC080
      TEMPO 2801/2803 3SM SHRA BR BKN030
     FM280300 17011KT P6SM OVC080
     FM280700 18011KT P6SM VCSH SCT020 OVC040
     FM281500 18015G22KT P6SM OVC045=

USA.gov is the U.S. government's official web portal to all federal, state and local government web resources and services.